Itaituba, Brazil
Current Conditions -  °F | °C
As of 7:00 AM on Monday 20 Oct 2014 (Local Time) from SBMY Reporting Station
Clear Clear  
Wind Chill: 81°   Ceiling: Unl
Heat Index: 87°   Visibility: 6mi
Dew Point: 77°   Wind: 2mph
Humidity: 89%   Direction: 200°SSW
Pressure: 29.91"   Gusts: NA
Location:  5.4°S, 60.75°W
Report Text: SBMY 201100Z 20002KT CAVOK 27/25 Q1013
Loading
Personal Weather Stations






























Interactive Weather Map
Tropical Storm Tracking
New forecast layout! Learn more

10-Day Weather Forecast

Advertisements
Track Severe Weather on mobile